createdAt,value
2022-10-05T00:02:24.703Z,11.60
2022-10-05T00:04:56.909Z,11.60
2022-10-05T00:07:24.899Z,11.60
2022-10-05T00:10:00.728Z,11.60
2022-10-05T00:12:29.788Z,11.60
2022-10-05T00:15:00.555Z,11.50
2022-10-05T00:17:29.437Z,11.40
2022-10-05T00:19:56.391Z,11.40
2022-10-05T00:22:28.934Z,11.40
2022-10-05T00:24:59.890Z,11.30
2022-10-05T00:27:36.478Z,11.40
2022-10-05T00:30:16.432Z,11.30
2022-10-05T00:32:43.352Z,11.30
2022-10-05T00:35:11.223Z,11.20
2022-10-05T00:37:38.511Z,11.20
2022-10-05T00:40:20.124Z,11.30
2022-10-05T00:43:09.492Z,11.20
2022-10-05T00:45:42.622Z,11.00
2022-10-05T00:48:37.071Z,11.00
2022-10-05T00:51:17.433Z,11.10
2022-10-05T00:53:58.113Z,11.10
2022-10-05T00:56:33.602Z,11.10
2022-10-05T00:59:12.089Z,11.10
2022-10-05T01:01:52.546Z,11.00
2022-10-05T01:04:59.102Z,10.80
2022-10-05T01:07:56.895Z,10.80
2022-10-05T01:10:37.869Z,10.70
2022-10-05T01:13:09.985Z,10.60
2022-10-05T01:15:45.342Z,10.50
2022-10-05T01:18:14.758Z,10.50
2022-10-05T01:21:15.415Z,10.60
2022-10-05T01:23:47.787Z,10.60
2022-10-05T01:26:41.721Z,10.70
2022-10-05T01:29:15.420Z,10.80
2022-10-05T01:31:47.312Z,10.70
2022-10-05T01:34:39.772Z,10.70
2022-10-05T01:37:12.423Z,10.60
2022-10-05T01:40:05.094Z,10.50
2022-10-05T01:42:47.667Z,10.50
2022-10-05T01:45:29.322Z,10.40
2022-10-05T01:48:40.326Z,10.40
2022-10-05T01:51:52.176Z,10.30
2022-10-05T01:54:50.680Z,10.30
2022-10-05T01:57:41.503Z,10.20
2022-10-05T02:00:12.804Z,10.10
2022-10-05T02:02:58.298Z,10.10
2022-10-05T02:05:32.849Z,10.20
2022-10-05T02:08:08.196Z,10.10
2022-10-05T02:10:42.236Z,10.20
2022-10-05T02:13:32.424Z,10.30
2022-10-05T02:16:05.136Z,10.20
2022-10-05T02:18:38.477Z,10.30
2022-10-05T02:21:05.881Z,10.30
2022-10-05T02:23:35.546Z,10.30
2022-10-05T02:26:03.451Z,10.30
2022-10-05T02:28:38.643Z,10.30
2022-10-05T02:31:12.618Z,10.20
2022-10-05T02:33:39.476Z,10.20
2022-10-05T02:36:32.170Z,10.10
2022-10-05T02:38:59.377Z,10.10
2022-10-05T02:41:49.350Z,10.10
2022-10-05T02:44:25.925Z,10.00
2022-10-05T02:47:07.615Z,10.00
2022-10-05T02:50:32.548Z,10.00
2022-10-05T02:53:19.344Z,10.00
2022-10-05T02:55:54.720Z,9.90
2022-10-05T02:58:33.702Z,9.90
2022-10-05T03:01:26.919Z,9.90
2022-10-05T03:04:19.174Z,9.90
2022-10-05T03:07:24.305Z,9.90
2022-10-05T03:09:56.631Z,9.90
2022-10-05T03:12:45.395Z,9.90
2022-10-05T03:16:08.695Z,10.00
2022-10-05T03:19:23.047Z,10.00
2022-10-05T03:22:11.050Z,9.80
2022-10-05T03:25:14.607Z,9.80
2022-10-05T03:27:56.537Z,9.60
2022-10-05T03:30:25.687Z,9.60
2022-10-05T03:33:30.785Z,9.60
2022-10-05T03:36:12.387Z,9.50
2022-10-05T03:39:01.164Z,9.60
2022-10-05T03:41:41.571Z,9.60
2022-10-05T03:44:36.553Z,9.50
2022-10-05T03:47:14.394Z,9.50
2022-10-05T03:49:59.231Z,9.60
2022-10-05T03:52:46.859Z,9.50
2022-10-05T03:55:18.081Z,9.30
2022-10-05T03:57:46.624Z,9.30
2022-10-05T04:00:25.603Z,9.20
2022-10-05T04:03:25.908Z,9.20
2022-10-05T04:05:58.381Z,9.20
2022-10-05T04:09:10.284Z,8.90
2022-10-05T04:11:46.657Z,8.80
2022-10-05T04:14:17.828Z,8.70
2022-10-05T04:16:56.700Z,8.70
2022-10-05T04:19:39.030Z,8.70
2022-10-05T04:22:26.199Z,8.60
2022-10-05T04:25:06.960Z,8.80
2022-10-05T04:27:45.751Z,8.80
2022-10-05T04:30:14.389Z,8.80
2022-10-05T04:32:47.870Z,8.90
2022-10-05T04:35:14.595Z,9.00
2022-10-05T04:38:05.932Z,9.00
2022-10-05T04:40:50.627Z,9.10
2022-10-05T04:43:54.551Z,9.10
2022-10-05T04:46:47.293Z,9.10
2022-10-05T04:49:43.681Z,9.10
2022-10-05T04:52:25.439Z,9.10
2022-10-05T04:55:22.646Z,9.20
2022-10-05T04:58:06.163Z,9.10
2022-10-05T05:00:53.034Z,9.10
2022-10-05T05:03:29.198Z,9.20
2022-10-05T05:06:17.956Z,9.20
2022-10-05T05:09:03.718Z,9.00
2022-10-05T05:11:54.627Z,8.90
2022-10-05T05:14:54.448Z,8.80
2022-10-05T05:17:29.712Z,8.80
2022-10-05T05:20:41.656Z,8.70
2022-10-05T05:23:50.495Z,8.70
2022-10-05T05:26:38.881Z,8.80
2022-10-05T05:29:19.810Z,8.90
2022-10-05T05:31:49.527Z,9.00
2022-10-05T05:34:37.982Z,9.00
2022-10-05T05:37:41.508Z,8.90
2022-10-05T05:40:21.324Z,8.80
2022-10-05T05:42:50.951Z,8.70
2022-10-05T05:45:43.965Z,8.70
2022-10-05T05:48:33.188Z,8.60
2022-10-05T05:51:27.544Z,8.70
2022-10-05T05:54:15.550Z,8.70
2022-10-05T05:56:48.167Z,8.80
2022-10-05T05:59:21.830Z,8.80
2022-10-05T06:01:56.541Z,8.70
2022-10-05T06:04:36.223Z,8.70
2022-10-05T06:07:04.799Z,8.60
2022-10-05T06:09:43.454Z,8.50
2022-10-05T06:12:16.293Z,8.50
2022-10-05T06:14:51.207Z,8.40
2022-10-05T06:17:50.147Z,8.50
2022-10-05T06:20:28.467Z,8.40
2022-10-05T06:23:00.540Z,8.40
2022-10-05T06:26:01.034Z,8.10
2022-10-05T06:28:30.087Z,8.10
2022-10-05T06:31:29.679Z,8.20
2022-10-05T06:34:31.778Z,8.30
2022-10-05T06:37:08.537Z,8.30
2022-10-05T06:39:50.499Z,8.40
2022-10-05T06:42:40.594Z,8.60
2022-10-05T06:45:12.789Z,8.80
2022-10-05T06:47:47.366Z,9.00
2022-10-05T06:50:33.062Z,9.20
2022-10-05T06:53:20.304Z,9.50
2022-10-05T06:56:08.796Z,9.60
2022-10-05T06:59:00.206Z,9.60
2022-10-05T07:01:50.985Z,9.70
2022-10-05T07:04:59.593Z,9.80
2022-10-05T07:07:53.458Z,10.10
2022-10-05T07:10:57.741Z,10.30
2022-10-05T07:13:39.163Z,10.50
2022-10-05T07:16:24.413Z,10.70
2022-10-05T07:19:05.493Z,10.80
2022-10-05T07:21:44.459Z,10.90
2022-10-05T07:24:31.756Z,10.80
2022-10-05T07:27:18.776Z,10.80
2022-10-05T07:30:02.676Z,11.10
2022-10-05T07:32:33.820Z,11.20
2022-10-05T07:35:45.578Z,11.30
2022-10-05T07:38:27.991Z,11.30
2022-10-05T07:41:04.458Z,11.50
2022-10-05T07:44:00.996Z,11.60
2022-10-05T07:46:38.427Z,11.70
2022-10-05T07:49:16.624Z,11.80
2022-10-05T07:51:51.064Z,12.00
2022-10-05T07:54:42.387Z,12.20
2022-10-05T07:57:25.944Z,12.40
2022-10-05T08:00:01.718Z,12.60
2022-10-05T08:02:38.886Z,12.70
2022-10-05T08:05:31.698Z,12.80
2022-10-05T08:08:25.572Z,12.90
2022-10-05T08:10:59.793Z,13.10
2022-10-05T08:13:44.468Z,13.20
2022-10-05T08:16:12.670Z,13.40
2022-10-05T08:19:08.537Z,13.50
2022-10-05T08:21:42.255Z,13.60
2022-10-05T08:24:38.780Z,13.70
2022-10-05T08:27:22.094Z,13.80
2022-10-05T08:30:04.924Z,14.00
2022-10-05T08:32:40.301Z,14.20
2022-10-05T08:35:36.519Z,14.40
2022-10-05T08:38:11.381Z,14.40
2022-10-05T08:40:46.999Z,14.40
2022-10-05T08:43:47.271Z,14.50
2022-10-05T08:46:35.092Z,14.70
2022-10-05T08:49:19.681Z,14.80
2022-10-05T08:52:28.985Z,14.90
2022-10-05T08:55:10.376Z,15.00
2022-10-05T08:58:07.469Z,15.20
2022-10-05T09:01:03.753Z,15.30
2022-10-05T09:03:51.575Z,15.40
2022-10-05T09:06:45.071Z,15.50
2022-10-05T09:09:48.899Z,15.70
2022-10-05T09:12:24.269Z,15.70
2022-10-05T09:15:26.973Z,15.90
2022-10-05T09:18:11.645Z,15.90
2022-10-05T09:20:53.520Z,16.10
2022-10-05T09:23:45.037Z,16.20
2022-10-05T09:26:31.583Z,16.30
2022-10-05T09:29:29.431Z,16.40
2022-10-05T09:32:33.711Z,16.60
2022-10-05T09:35:09.276Z,16.70
2022-10-05T09:37:59.905Z,16.70
2022-10-05T09:40:54.226Z,16.80
2022-10-05T09:43:29.683Z,16.80
2022-10-05T09:46:08.436Z,16.70
2022-10-05T09:49:10.902Z,16.90
2022-10-05T09:52:09.250Z,17.00
2022-10-05T09:54:47.781Z,17.10
2022-10-05T09:57:36.167Z,17.30
2022-10-05T10:00:16.500Z,17.40
2022-10-05T10:02:53.012Z,17.30
2022-10-05T10:05:34.573Z,17.30
2022-10-05T10:08:13.146Z,17.50
2022-10-05T10:10:54.869Z,17.70
2022-10-05T10:13:36.235Z,17.70
2022-10-05T10:16:08.815Z,17.70
2022-10-05T10:19:12.767Z,17.70
2022-10-05T10:21:42.340Z,17.90
2022-10-05T10:24:42.514Z,18.00
2022-10-05T10:27:16.296Z,18.10
2022-10-05T10:29:42.898Z,18.20
2022-10-05T10:32:34.336Z,18.30
2022-10-05T10:35:20.303Z,18.40
2022-10-05T10:37:52.921Z,18.60
2022-10-05T10:40:31.383Z,18.70
2022-10-05T10:43:16.195Z,18.80
2022-10-05T10:45:51.869Z,18.90
2022-10-05T10:48:18.539Z,18.90
2022-10-05T10:50:48.034Z,19.00
2022-10-05T10:53:52.299Z,19.10
2022-10-05T10:56:40.751Z,19.20
2022-10-05T10:59:29.235Z,19.30
2022-10-05T11:02:38.990Z,19.40
2022-10-05T11:05:14.946Z,19.50
2022-10-05T11:07:44.392Z,19.50
2022-10-05T11:10:46.049Z,19.60
2022-10-05T11:13:34.164Z,19.70
2022-10-05T11:16:19.925Z,19.70
2022-10-05T11:19:04.659Z,19.80
2022-10-05T11:21:53.328Z,20.00
2022-10-05T11:24:52.172Z,20.10
2022-10-05T11:27:52.610Z,20.20
2022-10-05T11:30:56.537Z,20.30
2022-10-05T11:33:45.064Z,20.40
2022-10-05T11:36:37.663Z,20.70
2022-10-05T11:39:33.326Z,20.80
2022-10-05T11:42:38.879Z,20.90
2022-10-05T11:45:24.214Z,20.90
2022-10-05T11:48:21.658Z,21.10
2022-10-05T11:51:03.565Z,21.30
2022-10-05T11:53:41.353Z,21.50
2022-10-05T11:56:52.340Z,21.70
2022-10-05T11:59:34.611Z,21.80
2022-10-05T12:02:24.289Z,21.80
2022-10-05T12:05:14.863Z,21.80
2022-10-05T12:07:50.349Z,21.70
2022-10-05T12:10:38.138Z,21.80
2022-10-05T12:13:19.217Z,22.00
2022-10-05T12:16:02.722Z,22.30
2022-10-05T12:18:32.688Z,22.30
2022-10-05T12:21:02.524Z,22.40
2022-10-05T12:23:34.574Z,22.40
2022-10-05T12:26:11.040Z,22.40
2022-10-05T12:28:52.238Z,22.50
2022-10-05T12:31:34.097Z,22.60
2022-10-05T12:34:03.991Z,22.70
2022-10-05T12:37:03.000Z,22.70
2022-10-05T12:40:06.117Z,22.70
2022-10-05T12:42:56.720Z,22.80
2022-10-05T12:45:54.760Z,22.80
2022-10-05T12:48:53.092Z,22.80
2022-10-05T12:51:32.032Z,22.80
2022-10-05T12:54:10.592Z,22.70
2022-10-05T12:56:49.165Z,22.90
2022-10-05T12:59:34.170Z,22.80
2022-10-05T13:02:12.952Z,23.00
2022-10-05T13:04:55.870Z,23.10
2022-10-05T13:07:31.373Z,23.10
2022-10-05T13:10:16.145Z,23.10
2022-10-05T13:13:08.564Z,23.10
2022-10-05T13:15:52.971Z,23.20
2022-10-05T13:18:44.357Z,23.20
2022-10-05T13:21:26.873Z,23.30
2022-10-05T13:24:34.095Z,23.30
2022-10-05T13:27:30.425Z,23.30
2022-10-05T13:29:59.933Z,23.40
2022-10-05T13:32:40.089Z,23.40
2022-10-05T13:35:25.814Z,23.50
2022-10-05T13:38:07.297Z,23.70
2022-10-05T13:40:49.823Z,23.60
2022-10-05T13:43:38.852Z,23.70
2022-10-05T13:46:44.374Z,23.70
2022-10-05T13:49:38.684Z,23.70
2022-10-05T13:52:08.831Z,23.80
2022-10-05T13:54:53.627Z,23.80
2022-10-05T13:57:36.089Z,23.90
2022-10-05T14:00:24.170Z,24.00
2022-10-05T14:02:56.645Z,24.00
2022-10-05T14:05:26.899Z,23.90
2022-10-05T14:08:02.764Z,24.00
2022-10-05T14:10:39.732Z,24.00
2022-10-05T14:13:40.901Z,24.00
2022-10-05T14:16:13.499Z,23.80
2022-10-05T14:18:58.405Z,23.90
2022-10-05T14:21:28.679Z,23.80
2022-10-05T14:23:58.771Z,23.70
2022-10-05T14:26:34.650Z,23.70
2022-10-05T14:29:15.180Z,23.80
2022-10-05T14:32:01.794Z,23.80
2022-10-05T14:34:35.046Z,23.80
2022-10-05T14:37:19.588Z,23.90
2022-10-05T14:39:51.871Z,23.90
2022-10-05T14:42:28.194Z,23.80
2022-10-05T14:44:59.647Z,23.70
2022-10-05T14:47:30.212Z,23.70
2022-10-05T14:50:19.234Z,23.90
2022-10-05T14:53:11.307Z,23.90
2022-10-05T14:55:55.728Z,23.90
2022-10-05T14:58:44.417Z,23.80
2022-10-05T15:01:17.804Z,23.80
2022-10-05T15:03:54.051Z,23.80
2022-10-05T15:06:32.919Z,23.80
2022-10-05T15:09:24.574Z,23.90
2022-10-05T15:11:57.399Z,23.80
2022-10-05T15:14:44.673Z,23.80
2022-10-05T15:17:20.647Z,23.70
2022-10-05T15:20:03.713Z,23.70
2022-10-05T15:22:46.239Z,23.70
2022-10-05T15:25:15.766Z,23.70
2022-10-05T15:28:08.397Z,23.70
2022-10-05T15:30:47.183Z,23.70
2022-10-05T15:33:39.939Z,23.60
2022-10-05T15:36:24.521Z,23.50
2022-10-05T15:39:06.136Z,23.40
2022-10-05T15:41:35.761Z,23.30
2022-10-05T15:44:40.233Z,23.30
2022-10-05T15:47:13.414Z,23.30
2022-10-05T15:50:01.423Z,23.30
2022-10-05T15:52:35.638Z,23.20
2022-10-05T15:55:32.958Z,23.00
2022-10-05T15:58:14.721Z,22.90
2022-10-05T16:00:54.485Z,22.80
2022-10-05T16:03:41.028Z,22.70
2022-10-05T16:06:42.970Z,22.70
2022-10-05T16:09:27.313Z,22.70
2022-10-05T16:12:09.674Z,22.70
2022-10-05T16:14:49.751Z,22.70
2022-10-05T16:17:35.297Z,22.60
2022-10-05T16:20:04.789Z,22.70
2022-10-05T16:22:48.404Z,22.70
2022-10-05T16:25:22.222Z,22.70
2022-10-05T16:28:23.007Z,22.40
2022-10-05T16:31:01.589Z,22.50
2022-10-05T16:33:37.130Z,22.40
2022-10-05T16:36:31.810Z,22.30
2022-10-05T16:39:24.000Z,22.20
2022-10-05T16:42:06.573Z,22.10
2022-10-05T16:44:46.419Z,22.00
2022-10-05T16:47:31.299Z,22.00
2022-10-05T16:50:19.490Z,21.90
2022-10-05T16:52:52.191Z,21.80
2022-10-05T16:55:42.114Z,21.70
2022-10-05T16:58:18.227Z,21.80
2022-10-05T17:01:08.508Z,21.70
2022-10-05T17:04:03.013Z,21.60
2022-10-05T17:06:37.030Z,21.50
2022-10-05T17:09:24.829Z,21.40
2022-10-05T17:12:26.640Z,21.30
2022-10-05T17:15:29.566Z,21.30
2022-10-05T17:18:11.277Z,21.30
2022-10-05T17:21:10.740Z,21.20
2022-10-05T17:23:54.037Z,21.20
2022-10-05T17:26:36.678Z,21.10
2022-10-05T17:29:16.868Z,21.00
2022-10-05T17:32:06.480Z,21.00
2022-10-05T17:34:36.369Z,21.00
2022-10-05T17:37:41.429Z,20.90
2022-10-05T17:40:38.206Z,20.90
2022-10-05T17:43:17.115Z,20.90
2022-10-05T17:45:43.813Z,20.80
2022-10-05T17:48:12.544Z,20.80
2022-10-05T17:51:05.783Z,20.70
2022-10-05T17:54:03.007Z,20.70
2022-10-05T17:56:31.531Z,20.70
2022-10-05T17:59:01.824Z,20.60
2022-10-05T18:01:40.137Z,20.50
2022-10-05T18:04:13.196Z,20.50
2022-10-05T18:06:44.624Z,20.50
2022-10-05T18:09:16.912Z,20.30
2022-10-05T18:11:48.001Z,20.40
2022-10-05T18:14:24.834Z,20.30
2022-10-05T18:17:11.693Z,20.20
2022-10-05T18:19:39.547Z,20.20
2022-10-05T18:22:17.929Z,20.10
2022-10-05T18:24:53.022Z,19.90
2022-10-05T18:27:34.127Z,19.80
2022-10-05T18:30:16.571Z,19.70
2022-10-05T18:33:05.076Z,19.60
2022-10-05T18:35:45.249Z,19.60
2022-10-05T18:38:12.160Z,19.60
2022-10-05T18:40:58.206Z,19.50
2022-10-05T18:43:35.926Z,19.50
2022-10-05T18:46:27.229Z,19.50
2022-10-05T18:49:14.786Z,19.30
2022-10-05T18:51:56.544Z,19.20
2022-10-05T18:54:51.148Z,19.00
2022-10-05T18:57:30.151Z,19.10
2022-10-05T19:00:16.439Z,19.10
2022-10-05T19:02:57.121Z,19.10
2022-10-05T19:05:47.416Z,19.00
2022-10-05T19:08:33.347Z,18.90
2022-10-05T19:11:32.021Z,18.90
2022-10-05T19:14:13.782Z,18.70
2022-10-05T19:16:49.735Z,18.70
2022-10-05T19:19:16.550Z,18.70
2022-10-05T19:22:14.456Z,18.50
2022-10-05T19:25:25.406Z,18.50
2022-10-05T19:28:10.156Z,18.50
2022-10-05T19:30:59.133Z,18.50
2022-10-05T19:33:34.938Z,18.50
2022-10-05T19:36:23.000Z,18.50
2022-10-05T19:38:59.612Z,18.50
2022-10-05T19:41:35.651Z,18.40
2022-10-05T19:44:13.829Z,18.30
2022-10-05T19:46:54.984Z,18.30
2022-10-05T19:49:47.386Z,18.30
2022-10-05T19:52:42.191Z,18.20
2022-10-05T19:55:16.354Z,18.20
2022-10-05T19:57:52.727Z,18.20
2022-10-05T20:00:24.677Z,18.20
2022-10-05T20:03:07.900Z,18.10
2022-10-05T20:05:34.979Z,18.00
2022-10-05T20:08:02.081Z,17.90
2022-10-05T20:10:30.879Z,17.80
2022-10-05T20:13:03.077Z,17.80
2022-10-05T20:15:54.308Z,17.70
2022-10-05T20:18:58.785Z,17.70
2022-10-05T20:21:43.486Z,17.70
2022-10-05T20:24:15.151Z,17.50
2022-10-05T20:27:06.616Z,17.40
2022-10-05T20:29:37.329Z,17.40
2022-10-05T20:32:12.442Z,17.50
2022-10-05T20:34:44.744Z,17.40
2022-10-05T20:37:14.147Z,17.40
2022-10-05T20:39:41.732Z,17.40
2022-10-05T20:42:09.454Z,17.30
2022-10-05T20:44:38.383Z,17.30
2022-10-05T20:47:08.742Z,17.20
2022-10-05T20:49:37.182Z,17.10
2022-10-05T20:52:04.944Z,17.00
2022-10-05T20:54:32.661Z,17.00
2022-10-05T20:56:59.449Z,17.00
2022-10-05T20:59:26.754Z,17.00
2022-10-05T21:01:53.481Z,16.90
2022-10-05T21:04:26.111Z,16.90
2022-10-05T21:06:54.038Z,16.80
2022-10-05T21:09:21.570Z,16.80
2022-10-05T21:11:52.739Z,16.80
2022-10-05T21:14:19.598Z,16.70
2022-10-05T21:16:46.608Z,16.80
2022-10-05T21:19:14.862Z,16.80
2022-10-05T21:21:43.610Z,16.90
2022-10-05T21:24:13.695Z,16.80
2022-10-05T21:26:41.777Z,16.80
2022-10-05T21:29:12.515Z,16.80
2022-10-05T21:31:40.318Z,16.80
2022-10-05T21:34:07.523Z,16.60
2022-10-05T21:36:34.635Z,16.60
2022-10-05T21:39:01.846Z,16.50
2022-10-05T21:41:28.642Z,16.40
2022-10-05T21:43:55.618Z,16.50
2022-10-05T21:46:26.537Z,16.40
2022-10-05T21:48:54.454Z,16.50
2022-10-05T21:51:24.009Z,16.30
2022-10-05T21:54:01.889Z,16.30
2022-10-05T21:56:34.763Z,16.20
2022-10-05T21:59:04.607Z,16.20
2022-10-05T22:01:31.341Z,16.30
2022-10-05T22:03:58.204Z,16.10
2022-10-05T22:06:25.003Z,16.10
2022-10-05T22:08:51.706Z,16.10
2022-10-05T22:11:18.612Z,16.10
2022-10-05T22:13:47.992Z,16.10
2022-10-05T22:16:16.416Z,16.00
2022-10-05T22:18:43.723Z,15.90
2022-10-05T22:21:12.138Z,15.90
2022-10-05T22:23:43.824Z,15.90
2022-10-05T22:26:13.190Z,15.70
2022-10-05T22:28:40.618Z,15.60
2022-10-05T22:31:09.531Z,15.70
2022-10-05T22:33:37.076Z,15.80
2022-10-05T22:36:05.394Z,15.60
2022-10-05T22:38:32.274Z,15.60
2022-10-05T22:40:59.096Z,15.60
2022-10-05T22:43:26.938Z,15.70
2022-10-05T22:45:54.281Z,15.70
2022-10-05T22:48:21.092Z,15.70
2022-10-05T22:50:47.964Z,15.70
2022-10-05T22:53:14.703Z,15.60
2022-10-05T22:55:41.306Z,15.50
2022-10-05T22:58:07.923Z,15.50
2022-10-05T23:00:56.504Z,15.40
2022-10-05T23:03:21.169Z,15.50
2022-10-05T23:05:47.811Z,15.40
2022-10-05T23:08:15.950Z,15.40
2022-10-05T23:10:43.294Z,15.40
2022-10-05T23:13:09.893Z,15.40
2022-10-05T23:15:36.551Z,15.40
2022-10-05T23:18:03.234Z,15.30
2022-10-05T23:20:29.978Z,15.30
2022-10-05T23:22:56.585Z,15.30
2022-10-05T23:25:23.295Z,15.20
2022-10-05T23:27:49.968Z,15.20
2022-10-05T23:30:16.889Z,15.20
2022-10-05T23:32:44.900Z,15.10
2022-10-05T23:35:13.017Z,15.10
2022-10-05T23:37:43.368Z,15.00
2022-10-05T23:40:12.273Z,14.90
2022-10-05T23:42:40.109Z,14.90
2022-10-05T23:45:08.744Z,14.80
2022-10-05T23:47:35.412Z,14.90
2022-10-05T23:50:02.531Z,14.90
2022-10-05T23:52:29.145Z,14.90
2022-10-05T23:54:55.810Z,14.90
2022-10-05T23:57:22.493Z,14.90
2022-10-05T23:59:50.263Z,14.80
